createdAt,value
2022-09-12T00:01:05.808Z,14.20
2022-09-12T00:02:38.744Z,12.18
2022-09-12T00:04:12.283Z,11.48
2022-09-12T00:05:47.490Z,13.48
2022-09-12T00:07:20.683Z,15.35
2022-09-12T00:08:58.421Z,13.52
2022-09-12T00:10:30.297Z,14.23
2022-09-12T00:12:03.710Z,16.45
2022-09-12T00:13:40.853Z,13.55
2022-09-12T00:15:15.046Z,14.13
2022-09-12T00:16:48.432Z,15.45
2022-09-12T00:18:21.308Z,14.82
2022-09-12T00:19:54.525Z,16.77
2022-09-12T00:23:01.967Z,16.23
2022-09-12T00:24:34.837Z,16.55
2022-09-12T00:26:07.322Z,16.35
2022-09-12T00:27:40.211Z,14.00
2022-09-12T00:29:17.581Z,15.25
2022-09-12T00:30:50.739Z,15.73
2022-09-12T00:32:23.685Z,14.32
2022-09-12T00:34:00.624Z,14.63
2022-09-12T00:35:33.461Z,16.20
2022-09-12T00:37:07.840Z,17.55
2022-09-12T00:38:41.954Z,19.10
2022-09-12T00:40:15.098Z,16.83
2022-09-12T00:41:47.993Z,16.10
2022-09-12T00:43:37.594Z,15.90
2022-09-12T00:45:24.104Z,14.63
2022-09-12T00:47:01.064Z,13.55
2022-09-12T00:48:40.267Z,13.40
2022-09-12T00:50:17.152Z,14.35
2022-09-12T00:51:55.182Z,14.40
2022-09-12T00:53:29.608Z,14.18
2022-09-12T00:55:06.604Z,15.95
2022-09-12T00:56:40.012Z,13.07
2022-09-12T00:58:18.132Z,15.32
2022-09-12T00:59:54.533Z,15.07
2022-09-12T01:01:32.174Z,16.10
2022-09-12T01:03:07.803Z,14.43
2022-09-12T01:04:42.820Z,14.63
2022-09-12T01:06:21.468Z,15.15
2022-09-12T01:07:54.772Z,13.65
2022-09-12T01:11:02.630Z,12.95
2022-09-12T01:12:38.589Z,13.90
2022-09-12T01:14:11.596Z,14.88
2022-09-12T01:15:44.564Z,12.52
2022-09-12T01:17:17.647Z,13.45
2022-09-12T01:19:09.053Z,13.80
2022-09-12T01:21:11.129Z,15.13
2022-09-12T01:23:22.391Z,14.48
2022-09-12T01:25:09.391Z,13.63
2022-09-12T01:27:12.814Z,12.48
2022-09-12T01:29:14.247Z,15.38
2022-09-12T01:30:52.811Z,14.57
2022-09-12T01:32:33.313Z,15.25
2022-09-12T01:34:18.469Z,15.35
2022-09-12T01:36:06.258Z,13.68
2022-09-12T01:37:44.755Z,13.15
2022-09-12T01:39:25.535Z,14.20
2022-09-12T01:41:07.700Z,15.48
2022-09-12T01:42:48.232Z,14.93
2022-09-12T01:44:28.052Z,16.40
2022-09-12T01:46:10.359Z,15.07
2022-09-12T01:47:47.886Z,16.23
2022-09-12T01:49:25.001Z,16.20
2022-09-12T01:51:07.338Z,13.63
2022-09-12T01:52:44.864Z,17.33
2022-09-12T01:54:21.104Z,14.70
2022-09-12T01:55:58.321Z,13.48
2022-09-12T01:57:36.381Z,15.07
2022-09-12T01:59:14.348Z,14.43
2022-09-12T02:00:51.134Z,12.68
2022-09-12T02:02:30.439Z,11.20
2022-09-12T02:04:09.222Z,13.57
2022-09-12T02:05:48.889Z,13.82
2022-09-12T02:07:24.756Z,12.85
2022-09-12T02:09:01.683Z,13.00
2022-09-12T02:10:41.498Z,11.70
2022-09-12T02:12:19.519Z,14.27
2022-09-12T02:13:58.099Z,13.05
2022-09-12T02:15:37.566Z,13.63
2022-09-12T02:17:13.989Z,12.20
2022-09-12T02:18:52.431Z,12.45
2022-09-12T02:20:47.410Z,11.13
2022-09-12T02:22:23.787Z,12.52
2022-09-12T02:24:01.341Z,11.38
2022-09-12T02:25:37.353Z,13.20
2022-09-12T02:27:15.268Z,12.30
2022-09-12T02:28:48.717Z,11.07
2022-09-12T02:31:59.938Z,12.82
2022-09-12T02:33:46.235Z,12.93
2022-09-12T02:35:25.850Z,12.40
2022-09-12T02:37:07.556Z,13.88
2022-09-12T02:38:45.763Z,15.27
2022-09-12T02:40:19.440Z,12.52
2022-09-12T02:41:53.515Z,10.45
2022-09-12T02:43:25.552Z,12.15
2022-09-12T02:44:58.680Z,13.20
2022-09-12T02:46:37.643Z,11.25
2022-09-12T02:48:14.520Z,12.30
2022-09-12T02:49:48.374Z,10.80
2022-09-12T02:51:23.801Z,11.13
2022-09-12T02:52:59.769Z,12.75
2022-09-12T02:54:32.984Z,12.57
2022-09-12T02:56:09.995Z,11.20
2022-09-12T02:57:42.882Z,11.85
2022-09-12T02:59:18.763Z,11.80
2022-09-12T03:01:01.873Z,12.57
2022-09-12T03:02:46.594Z,12.60
2022-09-12T03:04:58.005Z,11.48
2022-09-12T03:06:40.226Z,12.38
2022-09-12T03:08:45.482Z,11.82
2022-09-12T03:10:28.849Z,13.07
2022-09-12T03:12:12.657Z,13.70
2022-09-12T03:15:41.527Z,13.88
2022-09-12T03:17:25.425Z,12.82
2022-09-12T03:19:07.315Z,14.23
2022-09-12T03:20:51.644Z,15.50
2022-09-12T03:22:32.373Z,14.10
2022-09-12T03:24:16.401Z,12.18
2022-09-12T03:25:54.234Z,11.98
2022-09-12T03:27:30.187Z,15.60
2022-09-12T03:29:05.949Z,14.50
2022-09-12T03:30:41.215Z,13.02
2022-09-12T03:32:14.206Z,12.88
2022-09-12T03:33:47.260Z,16.05
2022-09-12T03:35:25.928Z,15.60
2022-09-12T03:36:58.809Z,14.73
2022-09-12T03:38:33.048Z,14.18
2022-09-12T03:40:07.051Z,14.55
2022-09-12T03:41:40.103Z,14.93
2022-09-12T03:43:13.333Z,14.98
2022-09-12T03:44:46.221Z,15.88
2022-09-12T03:46:18.098Z,15.20
2022-09-12T03:47:50.973Z,15.80
2022-09-12T03:49:23.864Z,15.32
2022-09-12T03:50:56.739Z,16.38
2022-09-12T03:52:28.619Z,15.55
2022-09-12T03:54:03.001Z,14.93
2022-09-12T03:55:36.176Z,14.50
2022-09-12T03:57:09.022Z,16.77
2022-09-12T03:58:42.272Z,16.42
2022-09-12T04:01:54.369Z,16.27
2022-09-12T04:03:26.361Z,17.10
2022-09-12T04:04:59.256Z,17.98
2022-09-12T04:06:32.201Z,16.00
2022-09-12T04:08:05.286Z,14.32
2022-09-12T04:09:39.899Z,17.25
2022-09-12T04:11:15.120Z,14.27
2022-09-12T04:12:47.097Z,16.48
2022-09-12T04:14:20.008Z,15.07
2022-09-12T04:15:59.772Z,15.93
2022-09-12T04:17:31.632Z,16.10
2022-09-12T04:19:06.010Z,16.15
2022-09-12T04:20:38.860Z,16.20
2022-09-12T04:22:11.750Z,15.73
2022-09-12T04:23:45.216Z,15.80
2022-09-12T04:25:19.452Z,13.90
2022-09-12T04:26:52.346Z,13.60
2022-09-12T04:28:25.849Z,14.98
2022-09-12T04:30:00.146Z,15.18
2022-09-12T04:31:33.159Z,13.57
2022-09-12T04:33:08.201Z,15.40
2022-09-12T04:34:42.377Z,15.52
2022-09-12T04:36:19.011Z,15.27
2022-09-12T04:37:52.038Z,15.88
2022-09-12T04:39:25.149Z,14.50
2022-09-12T04:40:59.421Z,16.60
2022-09-12T04:42:32.300Z,17.90
2022-09-12T04:44:07.327Z,18.77
2022-09-12T04:45:40.239Z,18.05
2022-09-12T04:47:13.214Z,19.98
2022-09-12T04:48:46.207Z,18.95
2022-09-12T04:50:19.386Z,16.88
2022-09-12T04:51:54.843Z,20.23
2022-09-12T04:53:26.722Z,17.88
2022-09-12T04:54:59.623Z,17.30
2022-09-12T04:56:35.966Z,15.40
2022-09-12T04:58:09.139Z,15.52
2022-09-12T04:59:41.180Z,14.45
2022-09-12T05:01:15.597Z,15.75
2022-09-12T05:02:48.637Z,16.52
2022-09-12T05:04:21.539Z,16.92
2022-09-12T05:05:56.440Z,16.52
2022-09-12T05:07:29.703Z,17.48
2022-09-12T05:09:03.602Z,17.35
2022-09-12T05:10:36.496Z,17.98
2022-09-12T05:12:10.858Z,17.40
2022-09-12T05:13:44.955Z,18.27
2022-09-12T05:15:17.979Z,19.20
2022-09-12T05:16:50.933Z,23.20
2022-09-12T05:18:23.007Z,18.10
2022-09-12T05:19:55.910Z,19.25
2022-09-12T05:21:27.997Z,17.27
2022-09-12T05:23:01.708Z,17.33
2022-09-12T05:24:35.129Z,15.65
2022-09-12T05:26:09.227Z,15.40
2022-09-12T05:27:48.623Z,16.60
2022-09-12T05:29:25.062Z,17.65
2022-09-12T05:31:05.517Z,14.75
2022-09-12T05:32:39.783Z,16.88
2022-09-12T05:34:17.573Z,17.65
2022-09-12T05:35:52.459Z,17.73
2022-09-12T05:37:25.308Z,19.75
2022-09-12T05:39:00.643Z,16.52
2022-09-12T05:40:33.734Z,18.45
2022-09-12T05:42:07.275Z,17.42
2022-09-12T05:43:43.117Z,17.73
2022-09-12T05:45:16.753Z,17.35
2022-09-12T05:46:51.229Z,15.75
2022-09-12T05:48:24.267Z,16.38
2022-09-12T05:49:57.538Z,15.48
2022-09-12T05:53:05.644Z,15.65
2022-09-12T05:54:43.043Z,17.75
2022-09-12T05:56:17.695Z,16.05
2022-09-12T05:57:50.799Z,15.93
2022-09-12T05:59:25.019Z,16.60
2022-09-12T06:01:02.316Z,15.30
2022-09-12T06:02:36.390Z,17.00
2022-09-12T06:04:09.925Z,15.57
2022-09-12T06:05:42.781Z,16.20
2022-09-12T06:07:15.730Z,15.70
2022-09-12T06:08:50.002Z,17.23
2022-09-12T06:10:23.259Z,17.08
2022-09-12T06:13:29.185Z,17.90
2022-09-12T06:15:03.870Z,17.63
2022-09-12T06:16:38.164Z,16.77
2022-09-12T06:18:11.771Z,18.20
2022-09-12T06:19:45.626Z,19.00
2022-09-12T06:21:18.967Z,16.13
2022-09-12T06:24:27.389Z,17.83
2022-09-12T06:27:32.092Z,14.40
2022-09-12T06:29:05.797Z,18.10
2022-09-12T06:30:40.094Z,15.30
2022-09-12T06:32:12.997Z,15.30
2022-09-12T06:33:47.709Z,13.88
2022-09-12T06:35:21.311Z,14.32
2022-09-12T06:36:54.330Z,14.25
2022-09-12T06:38:27.198Z,14.38
2022-09-12T06:40:02.007Z,14.38
2022-09-12T06:41:35.351Z,15.20
2022-09-12T06:43:08.346Z,14.80
2022-09-12T06:44:41.297Z,16.13
2022-09-12T06:46:15.619Z,16.00
2022-09-12T06:47:48.503Z,13.40
2022-09-12T06:49:21.445Z,14.77
2022-09-12T06:50:58.653Z,14.32
2022-09-12T06:52:31.532Z,14.82
2022-09-12T06:54:05.663Z,14.32
2022-09-12T06:55:37.572Z,16.17
2022-09-12T06:57:10.875Z,16.48
2022-09-12T07:00:17.220Z,14.97
2022-09-12T07:01:51.451Z,17.50
2022-09-12T07:03:23.371Z,17.80
2022-09-12T07:04:56.751Z,16.00
2022-09-12T07:06:32.474Z,15.98
2022-09-12T07:08:05.310Z,18.95
2022-09-12T07:09:38.174Z,17.42
2022-09-12T07:11:12.974Z,21.27
2022-09-12T07:12:45.856Z,18.08
2022-09-12T07:14:18.847Z,14.57
2022-09-12T07:15:51.685Z,14.57
2022-09-12T07:17:25.948Z,17.42
2022-09-12T07:19:00.168Z,16.77
2022-09-12T07:20:34.605Z,15.02
2022-09-12T07:22:07.537Z,16.15
2022-09-12T07:23:41.998Z,16.60
2022-09-12T07:25:16.220Z,16.58
2022-09-12T07:26:49.414Z,18.60
2022-09-12T07:28:21.315Z,17.98
2022-09-12T07:29:54.157Z,16.63
2022-09-12T07:31:28.708Z,17.08
2022-09-12T07:33:02.937Z,15.68
2022-09-12T07:34:36.331Z,16.48
2022-09-12T07:36:11.722Z,16.02
2022-09-12T07:37:44.664Z,19.42
2022-09-12T07:39:17.746Z,16.92
2022-09-12T07:40:50.807Z,14.60
2022-09-12T07:42:23.808Z,18.30
2022-09-12T07:43:58.225Z,19.30
2022-09-12T07:45:31.099Z,16.00
2022-09-12T07:47:04.767Z,18.58
2022-09-12T07:48:40.237Z,16.15
2022-09-12T07:50:13.100Z,17.92
2022-09-12T07:51:45.892Z,17.63
2022-09-12T07:53:18.778Z,17.25
2022-09-12T07:54:51.658Z,17.35
2022-09-12T07:56:29.897Z,19.50
2022-09-12T07:58:04.269Z,16.90
2022-09-12T07:59:52.613Z,20.90
2022-09-12T08:01:26.309Z,19.13
2022-09-12T08:02:59.144Z,18.65
2022-09-12T08:04:33.354Z,24.90
2022-09-12T08:06:07.983Z,18.92
2022-09-12T08:07:40.799Z,17.95
2022-09-12T08:09:15.384Z,17.85
2022-09-12T08:10:48.276Z,16.55
2022-09-12T08:12:21.339Z,18.02
2022-09-12T08:13:56.184Z,17.63
2022-09-12T08:15:29.184Z,18.52
2022-09-12T08:17:02.165Z,20.10
2022-09-12T08:18:37.363Z,19.95
2022-09-12T08:20:12.193Z,18.38
2022-09-12T08:21:45.069Z,20.10
2022-09-12T08:23:17.972Z,22.10
2022-09-12T08:24:50.982Z,21.42
2022-09-12T08:26:24.664Z,20.40
2022-09-12T08:27:57.522Z,19.27
2022-09-12T08:29:30.383Z,16.42
2022-09-12T08:31:04.049Z,19.92
2022-09-12T08:32:37.067Z,16.40
2022-09-12T08:34:10.015Z,17.27
2022-09-12T08:35:44.213Z,19.77
2022-09-12T08:37:17.144Z,17.35
2022-09-12T08:38:53.644Z,17.75
2022-09-12T08:40:29.138Z,16.80
2022-09-12T08:42:03.970Z,17.98
2022-09-12T08:43:56.698Z,19.55
2022-09-12T08:45:37.208Z,18.30
2022-09-12T08:47:19.696Z,16.83
2022-09-12T08:48:53.412Z,18.05
2022-09-12T08:50:26.346Z,18.80
2022-09-12T08:52:06.768Z,16.42
2022-09-12T08:53:41.210Z,16.77
2022-09-12T08:55:26.647Z,16.90
2022-09-12T08:57:03.701Z,16.40
2022-09-12T08:58:41.045Z,18.05
2022-09-12T09:00:22.746Z,17.30
2022-09-12T09:02:00.912Z,18.05
2022-09-12T09:03:55.238Z,15.25
2022-09-12T09:05:42.836Z,17.05
2022-09-12T09:07:42.119Z,15.95
2022-09-12T09:09:23.148Z,19.40
2022-09-12T09:11:05.470Z,17.92
2022-09-12T09:12:48.290Z,17.42
2022-09-12T09:14:53.578Z,15.43
2022-09-12T09:16:31.926Z,15.85
2022-09-12T09:18:11.553Z,16.27
2022-09-12T09:19:51.108Z,16.20
2022-09-12T09:21:31.017Z,17.95
2022-09-12T09:23:09.621Z,14.77
2022-09-12T09:24:45.653Z,16.05
2022-09-12T09:26:26.689Z,14.30
2022-09-12T09:28:03.867Z,14.07
2022-09-12T09:29:41.113Z,15.73
2022-09-12T09:31:16.706Z,14.90
2022-09-12T09:32:53.567Z,15.15
2022-09-12T09:34:31.413Z,15.20
2022-09-12T09:36:14.863Z,13.07
2022-09-12T09:38:02.480Z,12.35
2022-09-12T09:39:49.972Z,12.95
2022-09-12T09:41:38.769Z,11.98
2022-09-12T09:43:22.788Z,14.80
2022-09-12T09:45:00.252Z,12.38
2022-09-12T09:46:33.806Z,13.05
2022-09-12T09:48:17.409Z,13.02
2022-09-12T09:49:50.292Z,9.90
2022-09-12T09:51:28.010Z,16.15
2022-09-12T09:53:03.928Z,12.55
2022-09-12T09:54:41.766Z,10.25
2022-09-12T09:56:28.071Z,12.82
2022-09-12T09:58:00.951Z,13.25
2022-09-12T09:59:34.873Z,13.68
2022-09-12T10:01:15.500Z,13.90
2022-09-12T10:03:16.064Z,10.38
2022-09-12T10:04:55.426Z,9.27
2022-09-12T10:06:34.183Z,10.23
2022-09-12T10:08:08.222Z,10.82
2022-09-12T10:09:42.575Z,11.00
2022-09-12T10:11:22.674Z,10.68
2022-09-12T10:13:10.064Z,10.35
2022-09-12T10:14:43.452Z,14.15
2022-09-12T10:16:21.995Z,11.50
2022-09-12T10:17:55.736Z,10.73
2022-09-12T10:19:36.094Z,12.85
2022-09-12T10:21:19.296Z,11.85
2022-09-12T10:22:52.471Z,11.27
2022-09-12T10:26:04.179Z,11.30
2022-09-12T10:27:37.207Z,11.70
2022-09-12T10:29:18.949Z,11.07
2022-09-12T10:30:53.456Z,10.88
2022-09-12T10:32:31.266Z,12.07
2022-09-12T10:34:05.598Z,11.45
2022-09-12T10:35:47.051Z,12.35
2022-09-12T10:37:26.612Z,11.23
2022-09-12T10:39:02.580Z,11.05
2022-09-12T10:40:40.037Z,11.13
2022-09-12T10:42:19.265Z,11.57
2022-09-12T10:44:07.005Z,11.40
2022-09-12T10:45:40.602Z,11.65
2022-09-12T10:47:22.393Z,10.70
2022-09-12T10:49:22.503Z,12.60
2022-09-12T10:50:55.839Z,10.75
2022-09-12T10:52:29.362Z,12.02
2022-09-12T10:54:04.568Z,13.05
2022-09-12T10:55:37.841Z,12.30
2022-09-12T10:57:40.457Z,12.43
2022-09-12T10:59:21.676Z,10.35
2022-09-12T11:01:02.369Z,10.88
2022-09-12T11:02:50.083Z,12.38
2022-09-12T11:04:30.770Z,10.02
2022-09-12T11:06:03.976Z,9.25
2022-09-12T11:09:21.375Z,8.25
2022-09-12T11:10:59.514Z,8.68
2022-09-12T11:12:42.363Z,9.57
2022-09-12T11:14:26.939Z,11.75
2022-09-12T11:16:14.964Z,9.77
2022-09-12T11:17:56.047Z,9.48
2022-09-12T11:19:54.977Z,11.98
2022-09-12T11:21:40.096Z,9.98
2022-09-12T11:23:42.001Z,8.57
2022-09-12T11:25:28.688Z,11.38
2022-09-12T11:27:12.615Z,14.18
2022-09-12T11:28:53.872Z,11.73
2022-09-12T11:30:27.429Z,10.85
2022-09-12T11:32:13.422Z,12.88
2022-09-12T11:33:47.953Z,8.95
2022-09-12T11:35:25.986Z,10.95
2022-09-12T11:37:17.953Z,9.70
2022-09-12T11:39:03.073Z,9.52
2022-09-12T11:40:42.241Z,10.82
2022-09-12T11:42:20.691Z,10.43
2022-09-12T11:44:01.284Z,10.50
2022-09-12T11:45:42.416Z,9.68
2022-09-12T11:47:15.937Z,9.15
2022-09-12T11:48:56.275Z,9.45
2022-09-12T11:50:31.658Z,10.52
2022-09-12T11:52:08.443Z,10.75
2022-09-12T11:53:43.736Z,10.52
2022-09-12T11:55:20.359Z,11.43
2022-09-12T11:57:01.789Z,10.13
2022-09-12T11:58:36.617Z,10.43
2022-09-12T12:00:19.308Z,11.35
2022-09-12T12:01:56.421Z,9.38
2022-09-12T12:03:34.603Z,9.70
2022-09-12T12:05:21.405Z,11.10
2022-09-12T12:07:02.681Z,10.05
2022-09-12T12:08:40.638Z,9.52
2022-09-12T12:10:33.618Z,10.20
2022-09-12T12:12:09.637Z,10.07
2022-09-12T12:13:49.107Z,10.45
2022-09-12T12:15:25.233Z,10.73
2022-09-12T12:16:58.800Z,9.57
2022-09-12T12:18:34.307Z,9.68
2022-09-12T12:20:09.358Z,10.98
2022-09-12T12:21:43.862Z,9.60
2022-09-12T12:23:26.190Z,9.10
2022-09-12T12:25:08.303Z,10.25
2022-09-12T12:26:58.775Z,10.15
2022-09-12T12:28:58.799Z,10.00
2022-09-12T12:31:03.874Z,10.50
2022-09-12T12:32:36.896Z,9.30
2022-09-12T12:34:29.382Z,9.27
2022-09-12T12:36:07.843Z,8.98
2022-09-12T12:37:56.871Z,9.88
2022-09-12T12:40:01.117Z,11.20
2022-09-12T12:41:46.801Z,8.20
2022-09-12T12:43:31.929Z,8.90
2022-09-12T12:45:24.541Z,10.32
2022-09-12T12:47:19.017Z,8.55
2022-09-12T12:48:59.491Z,9.55
2022-09-12T12:50:33.106Z,9.48
2022-09-12T12:52:06.298Z,10.57
2022-09-12T12:53:43.010Z,9.77
2022-09-12T12:55:18.375Z,9.25
2022-09-12T12:57:01.311Z,9.15
2022-09-12T12:58:37.466Z,7.72
2022-09-12T13:00:32.566Z,8.07
2022-09-12T13:02:05.896Z,9.05
2022-09-12T13:03:44.687Z,7.78
2022-09-12T13:05:21.764Z,8.40
2022-09-12T13:07:05.854Z,7.82
2022-09-12T13:08:47.670Z,9.35
2022-09-12T13:10:24.743Z,14.50
2022-09-12T13:12:02.388Z,7.85
2022-09-12T13:13:39.650Z,7.40
2022-09-12T13:15:48.292Z,8.52
2022-09-12T13:17:27.203Z,7.68
2022-09-12T13:19:06.852Z,8.07
2022-09-12T13:20:49.709Z,6.95
2022-09-12T13:22:25.472Z,10.50
2022-09-12T13:24:03.168Z,9.02
2022-09-12T13:25:37.725Z,7.18
2022-09-12T13:27:18.810Z,8.65
2022-09-12T13:28:51.768Z,7.03
2022-09-12T13:31:59.071Z,7.88
2022-09-12T13:33:42.169Z,7.20
2022-09-12T13:35:27.313Z,7.57
2022-09-12T13:37:23.377Z,7.80
2022-09-12T13:39:20.229Z,8.82
2022-09-12T13:41:10.390Z,14.15
2022-09-12T13:42:45.721Z,7.85
2022-09-12T13:44:21.632Z,9.25
2022-09-12T13:45:55.040Z,8.43
2022-09-12T13:47:33.672Z,8.40
2022-09-12T13:49:14.217Z,9.50
2022-09-12T13:50:52.563Z,7.30
2022-09-12T13:52:29.047Z,8.68
2022-09-12T13:54:06.263Z,8.68
2022-09-12T13:55:42.707Z,8.02
2022-09-12T13:57:30.943Z,8.52
2022-09-12T13:59:04.264Z,8.38
2022-09-12T14:00:37.861Z,8.90
2022-09-12T14:02:21.738Z,7.95
2022-09-12T14:04:14.538Z,8.73
2022-09-12T14:05:55.471Z,8.60
2022-09-12T14:07:28.471Z,8.43
2022-09-12T14:09:01.582Z,8.23
2022-09-12T14:10:36.844Z,8.20
2022-09-12T14:12:22.138Z,10.85
2022-09-12T14:13:56.215Z,8.80
2022-09-12T14:15:31.639Z,9.40
2022-09-12T14:17:18.958Z,7.57
2022-09-12T14:18:54.819Z,7.22
2022-09-12T14:20:31.837Z,8.02
2022-09-12T14:22:06.314Z,7.20
2022-09-12T14:23:42.557Z,9.20
2022-09-12T14:25:17.735Z,8.30
2022-09-12T14:26:54.236Z,8.85
2022-09-12T14:28:30.170Z,8.20
2022-09-12T14:30:07.482Z,9.10
2022-09-12T14:31:41.286Z,10.00
2022-09-12T14:33:20.832Z,9.00
2022-09-12T14:35:08.361Z,6.68
2022-09-12T14:36:47.610Z,8.48
2022-09-12T14:38:27.020Z,7.75
2022-09-12T14:40:00.374Z,8.57
2022-09-12T14:41:38.623Z,9.23
2022-09-12T14:43:20.879Z,8.45
2022-09-12T14:44:58.578Z,10.88
2022-09-12T14:46:34.782Z,8.65
2022-09-12T14:48:07.967Z,8.25
2022-09-12T14:49:42.228Z,8.27
2022-09-12T14:51:22.077Z,7.82
2022-09-12T14:53:06.153Z,7.60
2022-09-12T14:54:42.809Z,10.43
2022-09-12T14:56:15.857Z,8.52
2022-09-12T14:59:30.150Z,7.30
2022-09-12T15:01:04.947Z,8.85
2022-09-12T15:02:38.559Z,9.07
2022-09-12T15:04:11.587Z,7.25
2022-09-12T15:07:31.391Z,8.60
2022-09-12T15:09:09.333Z,6.82
2022-09-12T15:10:43.629Z,7.50
2022-09-12T15:12:16.989Z,8.20
2022-09-12T15:13:49.927Z,7.90
2022-09-12T15:15:21.973Z,9.32
2022-09-12T15:16:55.090Z,7.97
2022-09-12T15:18:29.694Z,9.00
2022-09-12T15:20:03.350Z,9.93
2022-09-12T15:21:36.784Z,8.02
2022-09-12T15:23:15.955Z,8.35
2022-09-12T15:24:49.581Z,8.82
2022-09-12T15:26:27.387Z,7.45
2022-09-12T15:28:00.736Z,10.60
2022-09-12T15:29:33.712Z,8.23
2022-09-12T15:32:43.227Z,7.80
2022-09-12T15:34:16.160Z,8.70
2022-09-12T15:37:23.792Z,10.23
2022-09-12T15:38:57.055Z,9.48
2022-09-12T15:40:29.192Z,7.88
2022-09-12T15:42:03.487Z,9.03
2022-09-12T15:43:36.567Z,9.38
2022-09-12T15:46:50.423Z,8.88
2022-09-12T15:48:23.434Z,8.85
2022-09-12T15:49:56.541Z,7.95
2022-09-12T15:51:29.503Z,7.70
2022-09-12T15:53:02.909Z,6.88
2022-09-12T15:54:36.181Z,8.40
2022-09-12T15:56:09.109Z,7.50
2022-09-12T15:57:43.473Z,9.68
2022-09-12T15:59:16.610Z,9.55
2022-09-12T16:02:22.420Z,8.63
2022-09-12T16:03:55.444Z,10.23
2022-09-12T16:05:29.605Z,7.85
2022-09-12T16:07:02.459Z,10.02
2022-09-12T16:08:36.070Z,8.50
2022-09-12T16:10:11.673Z,7.70
2022-09-12T16:11:45.681Z,8.98
2022-09-12T16:13:19.940Z,8.57
2022-09-12T16:14:52.863Z,8.73
2022-09-12T16:16:25.747Z,8.65
2022-09-12T16:17:58.599Z,10.38
2022-09-12T16:19:31.552Z,9.43
2022-09-12T16:22:36.486Z,8.02
2022-09-12T16:24:09.371Z,8.38
2022-09-12T16:25:42.887Z,9.88
2022-09-12T16:27:15.913Z,8.45
2022-09-12T16:28:55.823Z,7.63
2022-09-12T16:30:28.829Z,8.57
2022-09-12T16:32:01.868Z,9.27
2022-09-12T16:33:34.923Z,10.32
2022-09-12T16:36:41.598Z,10.70
2022-09-12T16:39:48.876Z,9.27
2022-09-12T16:41:25.374Z,11.80
2022-09-12T16:42:58.364Z,8.85
2022-09-12T16:44:32.573Z,10.70
2022-09-12T16:46:06.869Z,7.15
2022-09-12T16:47:40.019Z,8.90
2022-09-12T16:50:45.593Z,11.35
2022-09-12T16:52:19.196Z,10.30
2022-09-12T16:53:52.947Z,9.30
2022-09-12T16:55:25.929Z,20.52
2022-09-12T16:56:58.955Z,15.27
2022-09-12T16:58:33.440Z,10.27
2022-09-12T17:00:09.693Z,10.15
2022-09-12T17:01:42.820Z,9.05
2022-09-12T17:04:49.864Z,8.70
2022-09-12T17:06:22.180Z,9.70
2022-09-12T17:07:55.274Z,11.35
2022-09-12T17:12:35.600Z,8.40
2022-09-12T17:14:09.068Z,10.43
2022-09-12T17:15:43.568Z,9.65
2022-09-12T17:17:16.575Z,9.65
2022-09-12T17:18:50.556Z,10.93
2022-09-12T17:20:23.772Z,11.05
2022-09-12T17:23:28.475Z,13.10
2022-09-12T17:25:01.534Z,13.00
2022-09-12T17:26:34.574Z,13.27
2022-09-12T17:28:07.783Z,12.52
2022-09-12T17:29:41.805Z,11.13
2022-09-12T17:31:15.278Z,11.00
2022-09-12T17:32:48.441Z,11.25
2022-09-12T17:34:21.424Z,9.95
2022-09-12T17:35:54.571Z,10.52
2022-09-12T17:39:02.947Z,10.60
2022-09-12T17:40:57.927Z,10.73
2022-09-12T17:42:29.784Z,11.02
2022-09-12T17:44:03.476Z,11.80
2022-09-12T17:45:35.801Z,11.98
2022-09-12T17:47:10.196Z,18.23
2022-09-12T17:48:42.341Z,29.35
2022-09-12T17:50:31.193Z,14.82
2022-09-12T17:52:05.058Z,15.05
2022-09-12T17:53:37.399Z,11.25
2022-09-12T17:55:11.068Z,11.98
2022-09-12T17:56:45.935Z,12.55
2022-09-12T17:58:19.029Z,11.60
2022-09-12T17:59:52.043Z,12.73
2022-09-12T18:01:43.215Z,12.77
2022-09-12T18:03:21.104Z,11.82
2022-09-12T18:04:55.837Z,12.07
2022-09-12T18:06:28.028Z,12.13
2022-09-12T18:08:04.523Z,12.63
2022-09-12T18:09:37.503Z,12.00
2022-09-12T18:11:10.476Z,12.18
2022-09-12T18:12:43.688Z,10.73
2022-09-12T18:15:50.507Z,12.45
2022-09-12T18:17:23.514Z,12.88
2022-09-12T18:19:01.183Z,12.20
2022-09-12T18:20:34.183Z,12.30
2022-09-12T18:22:07.752Z,11.77
2022-09-12T18:23:39.913Z,11.95
2022-09-12T18:25:12.934Z,13.50
2022-09-12T18:26:45.830Z,13.90
2022-09-12T18:28:18.865Z,13.07
2022-09-12T18:30:10.308Z,14.60
2022-09-12T18:31:46.738Z,12.45
2022-09-12T18:33:23.877Z,13.15
2022-09-12T18:34:58.589Z,12.80
2022-09-12T18:36:31.851Z,12.23
2022-09-12T18:39:37.710Z,11.45
2022-09-12T18:41:14.304Z,11.88
2022-09-12T18:42:47.317Z,11.60
2022-09-12T18:44:20.318Z,10.63
2022-09-12T18:45:52.309Z,12.90
2022-09-12T18:47:25.302Z,14.57
2022-09-12T18:48:59.258Z,12.52
2022-09-12T18:50:33.906Z,12.35
2022-09-12T18:52:06.862Z,13.00
2022-09-12T18:53:40.296Z,13.32
2022-09-12T18:55:13.738Z,14.65
2022-09-12T18:56:47.560Z,15.10
2022-09-12T18:58:20.538Z,14.10
2022-09-12T18:59:54.814Z,13.48
2022-09-12T19:01:29.382Z,13.75
2022-09-12T19:03:02.579Z,15.23
2022-09-12T19:04:36.951Z,13.13
2022-09-12T19:06:13.587Z,12.60
2022-09-12T19:07:46.583Z,15.70
2022-09-12T19:09:21.688Z,13.55
2022-09-12T19:10:58.019Z,12.93
2022-09-12T19:12:30.972Z,11.25
2022-09-12T19:14:04.006Z,13.10
2022-09-12T19:15:41.476Z,13.45
2022-09-12T19:17:14.504Z,10.80
2022-09-12T19:18:49.499Z,11.82
2022-09-12T19:20:22.859Z,14.30
2022-09-12T19:21:57.372Z,12.10
2022-09-12T19:23:32.394Z,12.30
2022-09-12T19:25:05.915Z,10.73
2022-09-12T19:26:40.005Z,13.32
2022-09-12T19:28:12.907Z,14.60
2022-09-12T19:29:46.252Z,14.00
2022-09-12T19:31:21.618Z,13.93
2022-09-12T19:32:54.687Z,14.05
2022-09-12T19:34:28.050Z,12.82
2022-09-12T19:36:03.530Z,12.05
2022-09-12T19:37:37.903Z,12.75
2022-09-12T19:39:11.326Z,13.15
2022-09-12T19:40:44.899Z,12.88
2022-09-12T19:42:17.787Z,14.10
2022-09-12T19:43:50.812Z,14.45
2022-09-12T19:45:23.869Z,14.85
2022-09-12T19:46:56.939Z,12.15
2022-09-12T19:48:30.655Z,12.05
2022-09-12T19:50:03.765Z,16.80
2022-09-12T19:51:36.797Z,14.18
2022-09-12T19:53:11.241Z,12.93
2022-09-12T19:54:45.400Z,13.63
2022-09-12T19:56:18.455Z,13.57
2022-09-12T19:57:51.429Z,12.82
2022-09-12T19:59:24.335Z,13.05
2022-09-12T20:00:57.609Z,12.73
2022-09-12T20:04:04.477Z,14.57
2022-09-12T20:05:42.039Z,13.05
2022-09-12T20:07:15.600Z,12.48
2022-09-12T20:08:50.328Z,12.02
2022-09-12T20:10:23.221Z,13.80
2022-09-12T20:11:56.192Z,12.35
2022-09-12T20:13:29.458Z,12.90
2022-09-12T20:16:35.438Z,12.95
2022-09-12T20:18:08.393Z,12.25
2022-09-12T20:19:41.266Z,13.27
2022-09-12T20:21:17.413Z,11.32
2022-09-12T20:22:51.816Z,13.50
2022-09-12T20:24:26.592Z,14.27
2022-09-12T20:26:01.751Z,12.85
2022-09-12T20:27:34.854Z,11.85
2022-09-12T20:29:08.785Z,13.05
2022-09-12T20:30:41.723Z,13.10
2022-09-12T20:32:14.808Z,14.10
2022-09-12T20:33:51.735Z,12.05
2022-09-12T20:35:25.825Z,12.23
2022-09-12T20:36:59.165Z,15.07
2022-09-12T20:38:31.280Z,12.35
2022-09-12T20:40:06.551Z,13.88
2022-09-12T20:41:39.833Z,12.70
2022-09-12T20:44:45.493Z,12.32
2022-09-12T20:46:21.868Z,11.50
2022-09-12T20:47:55.742Z,11.73
2022-09-12T20:49:28.727Z,12.65
2022-09-12T20:51:01.830Z,12.65
2022-09-12T20:52:34.774Z,12.68
2022-09-12T20:54:08.471Z,14.00
2022-09-12T20:55:50.304Z,11.90
2022-09-12T20:57:23.225Z,10.07
2022-09-12T20:58:56.510Z,15.45
2022-09-12T21:02:03.094Z,12.88
2022-09-12T21:03:37.741Z,13.95
2022-09-12T21:05:10.809Z,14.70
2022-09-12T21:06:43.735Z,14.35
2022-09-12T21:08:17.959Z,13.07
2022-09-12T21:09:51.257Z,11.15
2022-09-12T21:14:31.278Z,12.60
2022-09-12T21:16:06.497Z,11.93
2022-09-12T21:17:39.914Z,11.80
2022-09-12T21:19:12.995Z,14.07
2022-09-12T21:20:53.009Z,16.02
2022-09-12T21:22:26.040Z,13.63
2022-09-12T21:24:00.069Z,14.60
2022-09-12T21:25:33.493Z,13.77
2022-09-12T21:27:08.008Z,12.32
2022-09-12T21:28:41.314Z,14.10
2022-09-12T21:31:47.531Z,12.13
2022-09-12T21:33:21.116Z,11.90
2022-09-12T21:34:54.133Z,12.60
2022-09-12T21:36:27.243Z,11.23
2022-09-12T21:38:00.163Z,10.95
2022-09-12T21:39:33.073Z,14.73
2022-09-12T21:41:11.451Z,13.88
2022-09-12T21:42:45.898Z,12.60
2022-09-12T21:44:19.177Z,12.25
2022-09-12T21:47:30.914Z,12.00
2022-09-12T21:49:03.840Z,12.95
2022-09-12T21:50:35.864Z,12.27
2022-09-12T21:52:08.746Z,13.27
2022-09-12T21:53:42.172Z,14.45